createdAt,value
2019-02-24T00:01:49.737Z,19.90
2019-02-24T00:04:19.358Z,23.00
2019-02-24T00:06:49.428Z,20.63
2019-02-24T00:09:19.051Z,23.03
2019-02-24T00:11:48.725Z,23.70
2019-02-24T00:14:18.900Z,21.00
2019-02-24T00:16:48.609Z,21.03
2019-02-24T00:19:18.279Z,21.93
2019-02-24T00:21:48.204Z,25.97
2019-02-24T00:24:17.884Z,23.30
2019-02-24T00:26:47.635Z,23.00
2019-02-24T00:29:17.248Z,21.90
2019-02-24T00:31:47.160Z,21.87
2019-02-24T00:34:17.213Z,22.10
2019-02-24T00:36:47.138Z,24.50
2019-02-24T00:39:16.837Z,23.87
2019-02-24T00:41:46.456Z,22.20
2019-02-24T00:44:16.087Z,24.20
2019-02-24T00:46:45.997Z,21.87
2019-02-24T00:49:15.660Z,21.23
2019-02-24T00:51:45.279Z,23.67
2019-02-24T00:54:14.895Z,20.30
2019-02-24T00:56:44.561Z,22.70
2019-02-24T00:59:14.435Z,20.20
2019-02-24T01:01:44.148Z,22.00
2019-02-24T01:04:13.768Z,23.10
2019-02-24T01:06:43.580Z,22.40
2019-02-24T01:09:13.204Z,21.30
2019-02-24T01:11:42.832Z,20.70
2019-02-24T01:14:12.757Z,22.80
2019-02-24T01:16:42.368Z,23.87
2019-02-24T01:19:12.012Z,21.73
2019-02-24T01:21:41.625Z,23.30
2019-02-24T01:24:11.260Z,24.43
2019-02-24T01:26:40.864Z,23.73
2019-02-24T01:29:10.512Z,22.27
2019-02-24T01:31:40.127Z,25.43
2019-02-24T01:34:10.053Z,25.30
2019-02-24T01:36:39.676Z,22.67
2019-02-24T01:39:09.302Z,23.03
2019-02-24T01:41:38.925Z,22.97
2019-02-24T01:44:08.542Z,23.77
2019-02-24T01:46:38.432Z,26.57
2019-02-24T01:49:08.058Z,23.70
2019-02-24T01:51:37.683Z,24.03
2019-02-24T01:54:07.387Z,24.97
2019-02-24T01:56:37.321Z,21.50
2019-02-24T01:59:06.938Z,24.40
2019-02-24T02:01:36.654Z,24.77
2019-02-24T02:04:06.394Z,21.17
2019-02-24T02:06:36.008Z,21.70
2019-02-24T02:09:06.612Z,22.33
2019-02-24T02:11:36.591Z,25.77
2019-02-24T02:14:06.211Z,25.37
2019-02-24T02:16:35.877Z,24.53
2019-02-24T02:19:05.493Z,22.27
2019-02-24T02:21:35.099Z,23.57
2019-02-24T02:24:04.731Z,25.67
2019-02-24T02:26:34.386Z,22.87
2019-02-24T02:29:04.080Z,25.70
2019-02-24T02:31:33.701Z,25.13
2019-02-24T02:34:03.576Z,26.50
2019-02-24T02:36:33.186Z,24.37
2019-02-24T02:39:02.850Z,24.67
2019-02-24T02:41:34.091Z,22.50
2019-02-24T02:44:03.732Z,22.57
2019-02-24T02:46:33.345Z,22.67
2019-02-24T02:49:04.534Z,24.20
2019-02-24T02:51:34.660Z,24.70
2019-02-24T02:54:04.685Z,24.77
2019-02-24T02:56:34.379Z,22.93
2019-02-24T02:59:04.003Z,25.05
2019-02-24T03:01:33.702Z,24.27
2019-02-24T03:04:03.321Z,24.13
2019-02-24T03:06:56.404Z,24.63
2019-02-24T03:09:26.030Z,23.30
2019-02-24T03:11:55.652Z,25.17
2019-02-24T03:14:25.299Z,25.43
2019-02-24T03:16:55.339Z,26.23
2019-02-24T03:19:24.974Z,24.20
2019-02-24T03:21:54.596Z,27.70
2019-02-24T03:24:24.221Z,25.20
2019-02-24T03:26:54.088Z,26.07
2019-02-24T03:29:23.691Z,26.93
2019-02-24T03:31:53.319Z,23.10
2019-02-24T03:34:23.254Z,26.07
2019-02-24T03:36:52.926Z,26.30
2019-02-24T03:39:22.545Z,26.20
2019-02-24T03:41:52.437Z,25.63
2019-02-24T03:44:22.098Z,28.03
2019-02-24T03:46:51.727Z,26.47
2019-02-24T03:49:21.340Z,26.77
2019-02-24T03:51:51.007Z,27.53
2019-02-24T03:54:20.624Z,26.73
2019-02-24T03:56:50.237Z,30.37
2019-02-24T03:59:19.847Z,31.83
2019-02-24T04:01:49.627Z,28.97
2019-02-24T04:04:19.592Z,30.97
2019-02-24T04:06:49.471Z,28.93
2019-02-24T04:09:19.304Z,27.27
2019-02-24T04:11:49.249Z,29.00
2019-02-24T04:14:18.874Z,32.40
2019-02-24T04:16:48.496Z,30.73
2019-02-24T04:19:18.113Z,27.33
2019-02-24T04:21:47.798Z,30.07
2019-02-24T04:24:17.438Z,27.87
2019-02-24T04:26:47.379Z,28.63
2019-02-24T04:29:24.552Z,30.20
2019-02-24T04:31:48.352Z,27.60
2019-02-24T04:34:17.969Z,29.87
2019-02-24T04:36:48.102Z,31.03
2019-02-24T04:39:18.416Z,29.17
2019-02-24T04:41:48.046Z,28.80
2019-02-24T04:44:17.660Z,28.90
2019-02-24T04:46:47.279Z,28.83
2019-02-24T04:49:17.180Z,27.87
2019-02-24T04:51:46.895Z,31.43
2019-02-24T04:54:16.509Z,27.13
2019-02-24T04:56:46.204Z,31.17
2019-02-24T04:59:16.170Z,28.20
2019-02-24T05:01:45.796Z,29.30
2019-02-24T05:04:15.419Z,32.00
2019-02-24T05:06:45.282Z,31.00
2019-02-24T05:09:15.474Z,27.93
2019-02-24T05:11:45.403Z,28.67
2019-02-24T05:14:15.045Z,27.67
2019-02-24T05:16:44.656Z,30.60
2019-02-24T05:19:14.529Z,32.20
2019-02-24T05:21:44.624Z,30.20
2019-02-24T05:24:14.245Z,31.87
2019-02-24T05:26:44.486Z,28.70
2019-02-24T05:29:14.587Z,28.93
2019-02-24T05:31:44.754Z,29.83
2019-02-24T05:34:14.452Z,30.60
2019-02-24T05:36:44.345Z,27.83
2019-02-24T05:39:14.272Z,30.83
2019-02-24T05:41:44.409Z,30.50
2019-02-24T05:44:14.036Z,27.77
2019-02-24T05:46:43.991Z,30.20
2019-02-24T05:49:13.698Z,28.23
2019-02-24T05:51:43.313Z,31.30
2019-02-24T05:54:12.988Z,30.53
2019-02-24T05:56:42.600Z,29.17
2019-02-24T05:59:12.468Z,31.67
2019-02-24T06:01:42.084Z,30.03
2019-02-24T06:04:12.013Z,31.10
2019-02-24T06:06:41.949Z,31.47
2019-02-24T06:09:11.567Z,31.33
2019-02-24T06:11:41.431Z,31.00
2019-02-24T06:14:11.054Z,30.53
2019-02-24T06:16:40.677Z,36.87
2019-02-24T06:19:10.306Z,31.33
2019-02-24T06:21:40.470Z,30.90
2019-02-24T06:24:10.326Z,30.30
2019-02-24T06:26:39.932Z,30.57
2019-02-24T06:29:09.821Z,31.90
2019-02-24T06:31:39.441Z,32.47
2019-02-24T06:34:09.076Z,30.97
2019-02-24T06:36:38.688Z,29.97
2019-02-24T06:39:08.996Z,31.50
2019-02-24T06:41:38.694Z,33.87
2019-02-24T06:44:08.362Z,29.10
2019-02-24T06:46:37.983Z,30.43
2019-02-24T06:49:07.601Z,31.23
2019-02-24T06:51:37.676Z,33.60
2019-02-24T06:54:07.561Z,28.83
2019-02-24T06:56:37.212Z,28.87
2019-02-24T06:59:06.830Z,29.73
2019-02-24T07:01:36.559Z,30.10
2019-02-24T07:04:06.179Z,32.93
2019-02-24T07:06:36.052Z,31.37
2019-02-24T07:09:07.211Z,32.30
2019-02-24T07:11:36.838Z,30.40
2019-02-24T07:14:06.549Z,31.30
2019-02-24T07:16:36.206Z,32.80
2019-02-24T07:19:06.219Z,32.23
2019-02-24T07:21:36.128Z,31.03
2019-02-24T07:24:05.760Z,30.80
2019-02-24T07:26:35.922Z,30.93
2019-02-24T07:29:05.767Z,33.17
2019-02-24T07:31:35.408Z,34.57
2019-02-24T07:34:05.305Z,34.27
2019-02-24T07:36:35.067Z,31.47
2019-02-24T07:39:05.921Z,38.47
2019-02-24T07:41:36.709Z,33.03
2019-02-24T07:44:06.649Z,31.83
2019-02-24T07:46:36.349Z,31.60
2019-02-24T07:49:05.989Z,33.33
2019-02-24T07:51:35.608Z,32.50
2019-02-24T07:54:05.227Z,32.43
2019-02-24T07:56:34.843Z,33.47
2019-02-24T07:59:04.466Z,35.07
2019-02-24T08:01:34.092Z,31.90
2019-02-24T08:04:03.700Z,33.10
2019-02-24T08:06:33.801Z,29.30
2019-02-24T08:09:04.530Z,33.43
2019-02-24T08:11:34.528Z,32.73
2019-02-24T08:14:04.478Z,32.60
2019-02-24T08:16:34.112Z,30.97
2019-02-24T08:19:03.725Z,32.00
2019-02-24T08:21:34.349Z,31.47
2019-02-24T08:24:04.042Z,30.70
2019-02-24T08:26:34.043Z,30.00
2019-02-24T08:29:03.653Z,30.40
2019-02-24T08:31:33.277Z,31.23
2019-02-24T08:34:03.030Z,30.37
2019-02-24T08:36:32.645Z,29.80
2019-02-24T08:39:02.263Z,31.30
2019-02-24T08:41:33.260Z,27.87
2019-02-24T08:44:03.117Z,30.33
2019-02-24T08:46:32.748Z,30.47
2019-02-24T08:49:02.528Z,28.43
2019-02-24T08:51:32.143Z,29.60
2019-02-24T08:54:02.351Z,30.00
2019-02-24T08:56:31.989Z,30.33
2019-02-24T08:59:02.318Z,29.57
2019-02-24T09:01:31.941Z,25.50
2019-02-24T09:04:01.558Z,26.97
2019-02-24T09:06:31.240Z,27.27
2019-02-24T09:09:01.178Z,29.27
2019-02-24T09:11:32.418Z,26.40
2019-02-24T09:14:02.076Z,29.17
2019-02-24T09:16:31.701Z,27.60
2019-02-24T09:19:01.332Z,28.87
2019-02-24T09:21:31.428Z,28.87
2019-02-24T09:24:01.104Z,26.00
2019-02-24T09:26:30.786Z,26.53
2019-02-24T09:29:00.650Z,26.13
2019-02-24T09:31:30.654Z,26.73
2019-02-24T09:34:00.388Z,25.83
2019-02-24T09:36:30.001Z,26.80
2019-02-24T09:38:59.981Z,29.97
2019-02-24T09:41:29.595Z,28.43
2019-02-24T09:43:59.220Z,31.70
2019-02-24T09:46:28.838Z,28.53
2019-02-24T09:48:58.467Z,28.93
2019-02-24T09:51:28.080Z,28.30
2019-02-24T09:53:57.700Z,25.77
2019-02-24T09:56:27.408Z,25.63
2019-02-24T09:58:57.332Z,27.10
2019-02-24T10:01:27.034Z,23.67
2019-02-24T10:03:57.008Z,26.13
2019-02-24T10:06:26.624Z,25.50
2019-02-24T10:08:56.248Z,25.47
2019-02-24T10:11:25.852Z,26.17
2019-02-24T10:13:55.746Z,27.37
2019-02-24T10:16:25.611Z,23.90
2019-02-24T10:18:55.483Z,27.15
2019-02-24T10:21:25.183Z,25.90
2019-02-24T10:23:54.807Z,24.70
2019-02-24T10:26:24.740Z,27.65
2019-02-24T10:28:54.377Z,27.97
2019-02-24T10:31:24.974Z,27.13
2019-02-24T10:33:54.845Z,25.97
2019-02-24T10:36:25.205Z,25.27
2019-02-24T10:38:55.114Z,27.97
2019-02-24T10:41:24.920Z,26.33
2019-02-24T10:43:54.880Z,25.83
2019-02-24T10:46:25.008Z,27.07
2019-02-24T10:49:03.110Z,26.80
2019-02-24T10:51:25.982Z,27.60
2019-02-24T10:53:55.640Z,26.83
2019-02-24T10:56:25.269Z,27.37
2019-02-24T10:58:54.983Z,29.53
2019-02-24T11:01:29.658Z,27.07
2019-02-24T11:03:56.672Z,26.93
2019-02-24T11:06:26.564Z,27.40
2019-02-24T11:08:56.507Z,25.90
2019-02-24T11:11:26.177Z,25.70
2019-02-24T11:13:56.116Z,27.83
2019-02-24T11:16:26.008Z,25.80
2019-02-24T11:18:55.628Z,27.47
2019-02-24T11:21:25.458Z,28.10
2019-02-24T11:23:55.098Z,27.67
2019-02-24T11:26:25.427Z,26.48
2019-02-24T11:28:55.054Z,25.17
2019-02-24T11:31:25.708Z,26.30
2019-02-24T11:33:55.421Z,27.80
2019-02-24T11:36:25.560Z,27.22
2019-02-24T11:38:55.466Z,26.67
2019-02-24T11:41:25.572Z,24.92
2019-02-24T11:43:55.419Z,27.17
2019-02-24T11:46:26.127Z,29.27
2019-02-24T11:48:55.828Z,25.67
2019-02-24T11:51:25.616Z,25.62
2019-02-24T11:53:55.267Z,25.40
2019-02-24T11:56:25.711Z,22.75
2019-02-24T11:58:55.328Z,26.90
2019-02-24T12:01:26.018Z,24.12
2019-02-24T12:03:55.702Z,25.27
2019-02-24T12:06:25.804Z,25.08
2019-02-24T12:08:55.705Z,28.20
2019-02-24T12:11:25.850Z,24.77
2019-02-24T12:13:55.473Z,22.57
2019-02-24T12:16:25.882Z,24.70
2019-02-24T12:18:55.654Z,23.73
2019-02-24T12:21:25.956Z,25.72
2019-02-24T12:23:55.692Z,21.83
2019-02-24T12:26:26.044Z,25.70
2019-02-24T12:28:55.952Z,25.83
2019-02-24T12:31:26.564Z,21.70
2019-02-24T12:33:56.911Z,24.53
2019-02-24T12:36:26.720Z,20.77
2019-02-24T12:38:56.336Z,23.70
2019-02-24T12:41:26.281Z,21.48
2019-02-24T12:43:55.986Z,23.50
2019-02-24T12:46:26.184Z,25.25
2019-02-24T12:48:55.821Z,24.33
2019-02-24T12:51:26.524Z,21.47
2019-02-24T12:53:56.169Z,21.27
2019-02-24T12:56:26.361Z,24.47
2019-02-24T12:58:55.996Z,22.27
2019-02-24T13:01:26.677Z,22.30
2019-02-24T13:03:57.168Z,23.10
2019-02-24T13:06:26.976Z,21.43
2019-02-24T13:08:56.652Z,22.17
2019-02-24T13:11:27.560Z,23.97
2019-02-24T13:13:57.190Z,24.33
2019-02-24T13:16:26.808Z,21.73
2019-02-24T13:18:56.432Z,22.67
2019-02-24T13:21:26.948Z,22.13
2019-02-24T13:23:56.800Z,22.10
2019-02-24T13:26:26.589Z,23.60
2019-02-24T13:28:56.529Z,22.43
2019-02-24T13:31:26.796Z,20.15
2019-02-24T13:33:56.416Z,21.17
2019-02-24T13:36:26.766Z,20.82
2019-02-24T13:38:58.271Z,19.23
2019-02-24T13:41:27.760Z,20.87
2019-02-24T13:43:57.702Z,22.33
2019-02-24T13:46:27.335Z,20.13
2019-02-24T13:48:56.949Z,20.70
2019-02-24T13:51:26.885Z,20.60
2019-02-24T13:53:56.742Z,21.13
2019-02-24T13:56:27.151Z,24.35
2019-02-24T13:58:56.853Z,20.80
2019-02-24T14:01:27.383Z,21.77
2019-02-24T14:03:57.320Z,20.87
2019-02-24T14:06:27.080Z,20.30
2019-02-24T14:08:57.046Z,19.27
2019-02-24T14:11:27.068Z,20.65
2019-02-24T14:13:56.735Z,20.17
2019-02-24T14:16:27.441Z,19.77
2019-02-24T14:18:57.071Z,20.37
2019-02-24T14:21:27.200Z,19.30
2019-02-24T14:23:56.885Z,19.07
2019-02-24T14:26:27.489Z,21.60
2019-02-24T14:28:57.375Z,20.50
2019-02-24T14:31:27.275Z,18.75
2019-02-24T14:33:57.510Z,18.67
2019-02-24T14:36:27.321Z,21.57
2019-02-24T14:38:56.949Z,20.53
2019-02-24T14:41:27.796Z,21.47
2019-02-24T14:43:57.399Z,20.10
2019-02-24T14:46:27.804Z,21.27
2019-02-24T14:48:57.492Z,20.40
2019-02-24T14:51:27.773Z,19.62
2019-02-24T14:53:57.393Z,19.30
2019-02-24T14:56:28.012Z,19.95
2019-02-24T14:58:57.624Z,19.13
2019-02-24T15:01:28.814Z,19.32
2019-02-24T15:03:58.548Z,19.33
2019-02-24T15:06:28.186Z,17.97
2019-02-24T15:08:58.097Z,18.77
2019-02-24T15:11:27.724Z,17.70
2019-02-24T15:13:57.349Z,18.83
2019-02-24T15:16:27.830Z,20.10
2019-02-24T15:18:57.443Z,19.33
2019-02-24T15:21:27.882Z,18.52
2019-02-24T15:23:57.536Z,21.37
2019-02-24T15:26:29.306Z,20.20
2019-02-24T15:28:59.512Z,21.13
2019-02-24T15:31:29.145Z,20.43
2019-02-24T15:33:58.842Z,21.00
2019-02-24T15:36:28.498Z,20.83
2019-02-24T15:38:58.163Z,22.13
2019-02-24T15:41:29.982Z,21.55
2019-02-24T15:43:59.705Z,22.93
2019-02-24T15:46:29.512Z,19.37
2019-02-24T15:48:59.202Z,24.77
2019-02-24T15:51:29.871Z,24.30
2019-02-24T15:53:59.633Z,21.37
2019-02-24T15:56:30.246Z,21.00
2019-02-24T15:59:00.124Z,22.30
2019-02-24T16:01:29.758Z,23.00
2019-02-24T16:03:59.440Z,21.20
2019-02-24T16:06:37.022Z,21.77
2019-02-24T16:09:00.740Z,22.53
2019-02-24T16:11:31.998Z,23.77
2019-02-24T16:14:01.615Z,28.43
2019-02-24T16:16:31.243Z,41.27
2019-02-24T16:19:00.852Z,39.67
2019-02-24T16:21:30.806Z,22.40
2019-02-24T16:24:00.593Z,34.40
2019-02-24T16:26:30.272Z,31.20
2019-02-24T16:28:59.974Z,57.53
2019-02-24T16:31:29.588Z,29.83
2019-02-24T16:33:59.201Z,23.47
2019-02-24T16:36:28.844Z,22.40
2019-02-24T16:38:58.452Z,23.30
2019-02-24T16:41:28.610Z,36.33
2019-02-24T16:43:58.251Z,28.47
2019-02-24T16:46:28.790Z,31.55
2019-02-24T16:48:58.468Z,33.17
2019-02-24T16:51:28.736Z,28.57
2019-02-24T16:53:58.658Z,26.50
2019-02-24T16:56:28.961Z,23.98
2019-02-24T16:58:58.606Z,25.23
2019-02-24T17:01:28.924Z,25.60
2019-02-24T17:03:58.564Z,23.20
2019-02-24T17:06:28.912Z,22.22
2019-02-24T17:09:03.143Z,25.33
2019-02-24T17:11:32.534Z,24.00
2019-02-24T17:14:02.152Z,23.60
2019-02-24T17:16:31.771Z,23.27
2019-02-24T17:19:01.752Z,24.93
2019-02-24T17:21:31.380Z,33.60
2019-02-24T17:24:01.010Z,29.67
2019-02-24T17:26:31.145Z,27.30
2019-02-24T17:29:00.832Z,24.97
2019-02-24T17:31:30.512Z,35.10
2019-02-24T17:34:00.137Z,26.23
2019-02-24T17:36:29.986Z,28.07
2019-02-24T17:38:59.608Z,26.07
2019-02-24T17:41:29.280Z,28.63
2019-02-24T17:43:58.908Z,28.80
2019-02-24T17:46:29.255Z,27.95
2019-02-24T17:48:58.881Z,26.03
2019-02-24T17:51:29.562Z,25.23
2019-02-24T17:53:59.432Z,27.50
2019-02-24T17:56:29.431Z,27.67
2019-02-24T17:58:59.084Z,26.23
2019-02-24T18:01:30.041Z,27.90
2019-02-24T18:04:00.316Z,27.00
2019-02-24T18:06:29.938Z,27.07
2019-02-24T18:08:59.596Z,29.97
2019-02-24T18:11:29.891Z,24.85
2019-02-24T18:13:59.513Z,31.43
2019-02-24T18:16:30.028Z,32.42
2019-02-24T18:19:00.027Z,33.77
2019-02-24T18:21:30.074Z,29.53
2019-02-24T18:23:59.775Z,31.83
2019-02-24T18:26:30.479Z,33.80
2019-02-24T18:29:00.096Z,32.03
2019-02-24T18:31:30.245Z,31.95
2019-02-24T18:33:59.899Z,31.47
2019-02-24T18:36:29.913Z,31.25
2019-02-24T18:38:59.823Z,35.67
2019-02-24T18:41:30.208Z,39.03
2019-02-24T18:44:00.223Z,36.53
2019-02-24T18:46:29.893Z,30.03
2019-02-24T18:48:59.501Z,34.30
2019-02-24T18:51:30.104Z,30.47
2019-02-24T18:53:59.713Z,29.40
2019-02-24T18:56:30.061Z,30.25
2019-02-24T18:58:59.667Z,32.17
2019-02-24T19:01:30.001Z,32.45
2019-02-24T19:03:59.918Z,28.13
2019-02-24T19:06:38.736Z,28.15
2019-02-24T19:09:01.583Z,26.67
2019-02-24T19:11:32.822Z,23.57
2019-02-24T19:14:02.674Z,27.00
2019-02-24T19:16:32.650Z,22.10
2019-02-24T19:19:02.343Z,22.80
2019-02-24T19:21:31.968Z,22.20
2019-02-24T19:24:01.606Z,22.23
2019-02-24T19:26:31.272Z,24.57
2019-02-24T19:29:00.898Z,24.37
2019-02-24T19:31:30.530Z,24.13
2019-02-24T19:34:06.400Z,23.23
2019-02-24T19:36:31.535Z,27.10
2019-02-24T19:39:01.591Z,26.70
2019-02-24T19:41:32.851Z,25.07
2019-02-24T19:44:02.525Z,26.00
2019-02-24T19:46:32.379Z,27.83
2019-02-24T19:49:01.999Z,28.03
2019-02-24T19:51:31.672Z,29.03
2019-02-24T19:54:01.304Z,26.73
2019-02-24T19:56:31.188Z,28.53
2019-02-24T19:59:00.818Z,32.83
2019-02-24T20:01:30.444Z,33.07
2019-02-24T20:04:00.083Z,32.27
2019-02-24T20:06:30.676Z,35.13
2019-02-24T20:09:00.565Z,35.10
2019-02-24T20:11:32.052Z,30.13
2019-02-24T20:14:01.736Z,32.43
2019-02-24T20:16:31.357Z,32.90
2019-02-24T20:19:01.306Z,34.30
2019-02-24T20:21:30.984Z,37.70
2019-02-24T20:24:00.612Z,36.00
2019-02-24T20:26:30.564Z,39.37
2019-02-24T20:29:00.231Z,40.97
2019-02-24T20:31:30.049Z,40.83
2019-02-24T20:33:59.668Z,38.47
2019-02-24T20:36:30.060Z,38.45
2019-02-24T20:38:59.798Z,39.27
2019-02-24T20:41:30.290Z,41.28
2019-02-24T20:44:00.429Z,38.83
2019-02-24T20:46:30.064Z,37.73
2019-02-24T20:48:59.693Z,39.97
2019-02-24T20:51:30.088Z,40.28
2019-02-24T20:53:59.789Z,39.37
2019-02-24T20:56:30.102Z,38.80
2019-02-24T20:58:59.728Z,31.10
2019-02-24T21:01:30.075Z,29.57
2019-02-24T21:03:59.717Z,27.80
2019-02-24T21:06:30.376Z,28.55
2019-02-24T21:09:00.006Z,23.77
2019-02-24T21:11:30.120Z,26.48
2019-02-24T21:13:59.794Z,23.97
2019-02-24T21:16:30.153Z,26.68
2019-02-24T21:18:59.849Z,30.30
2019-02-24T21:21:30.344Z,28.65
2019-02-24T21:24:00.275Z,31.00
2019-02-24T21:26:30.138Z,36.98
2019-02-24T21:29:01.024Z,36.73
2019-02-24T21:31:30.642Z,41.07
2019-02-24T21:34:00.318Z,39.33
2019-02-24T21:36:30.142Z,39.95
2019-02-24T21:39:00.028Z,41.17
2019-02-24T21:41:31.261Z,39.10
2019-02-24T21:44:00.948Z,40.07
2019-02-24T21:46:31.089Z,37.83
2019-02-24T21:49:01.029Z,39.80
2019-02-24T21:51:30.864Z,39.90
2019-02-24T21:54:00.856Z,38.20
2019-02-24T21:56:31.444Z,41.20
2019-02-24T21:59:01.152Z,46.00
2019-02-24T22:01:31.896Z,42.57
2019-02-24T22:04:01.588Z,46.57
2019-02-24T22:06:32.264Z,48.67
2019-02-24T22:09:02.308Z,51.57
2019-02-24T22:11:33.537Z,41.60
2019-02-24T22:14:03.160Z,43.40
2019-02-24T22:16:32.781Z,37.93
2019-02-24T22:19:02.425Z,39.10
2019-02-24T22:21:32.335Z,40.37
2019-02-24T22:24:02.052Z,44.13
2019-02-24T22:26:31.700Z,44.33
2019-02-24T22:29:02.697Z,41.50
2019-02-24T22:31:32.576Z,41.03
2019-02-24T22:34:02.557Z,38.50
2019-02-24T22:36:32.192Z,39.73
2019-02-24T22:39:01.792Z,35.77
2019-02-24T22:41:33.046Z,36.17
2019-02-24T22:44:02.737Z,39.13
2019-02-24T22:46:32.361Z,37.50
2019-02-24T22:49:02.282Z,43.13
2019-02-24T22:51:32.132Z,42.40
2019-02-24T22:54:01.740Z,42.87
2019-02-24T22:56:31.597Z,42.73
2019-02-24T22:59:01.349Z,38.13
2019-02-24T23:01:38.960Z,37.47
2019-02-24T23:04:11.054Z,37.53
2019-02-24T23:06:40.934Z,36.00
2019-02-24T23:09:14.233Z,40.53
2019-02-24T23:11:44.425Z,39.13
2019-02-24T23:14:14.031Z,35.27
2019-02-24T23:16:43.910Z,41.10
2019-02-24T23:19:13.700Z,41.17
2019-02-24T23:21:43.389Z,38.33
2019-02-24T23:24:13.330Z,37.40
2019-02-24T23:26:43.920Z,36.80
2019-02-24T23:29:13.538Z,40.80
2019-02-24T23:31:44.259Z,39.87
2019-02-24T23:34:14.091Z,41.57
2019-02-24T23:36:43.782Z,46.77
2019-02-24T23:39:16.299Z,42.63
2019-02-24T23:41:46.917Z,43.37
2019-02-24T23:44:16.687Z,41.37
2019-02-24T23:46:46.859Z,41.23
2019-02-24T23:49:16.536Z,40.47
2019-02-24T23:51:46.170Z,40.10
2019-02-24T23:54:15.892Z,45.17
2019-02-24T23:56:45.594Z,42.13
2019-02-24T23:59:15.281Z,46.60
